Time;durP1;ratioP1;P1;durP2;ratioP2;P2;SDS_P1;SDS_P2;PMS_P1;PMS_P2;Temp;Humidity;BMP_temperature;BMP_pressure;BME280_temperature;BME280_humidity;BME280_pressure;Samples;Min_cycle;Max_cycle;Signal;HPM_P1;HPM_P2
2022/06/29 00:01:08;;;;;;;16.60;2.60;;;;;;;18.22;nan;101496.34;5963926;24;20805;-87
2022/06/29 00:04:50;;;;;;;8.17;1.77;;;;;;;18.44;nan;101530.03;5940946;23;20836;-87
2022/06/29 00:08:24;;;;;;;11.77;2.00;;;;;;;18.33;nan;101503.06;5993391;23;20413;-87
2022/06/29 00:10:58;;;;;;;10.37;2.03;;;;;;;18.22;nan;101489.97;6017207;23;20416;-86
2022/06/29 00:13:26;;;;;;;15.90;2.10;;;;;;;18.27;nan;101498.44;6013863;23;20442;-86
2022/06/29 00:16:02;;;;;;;11.97;2.40;;;;;;;18.43;nan;101517.25;6047849;23;20418;-86
2022/06/29 00:18:34;;;;;;;11.03;2.37;;;;;;;18.38;nan;101500.47;6142926;23;20483;-87
2022/06/29 00:21:02;;;;;;;10.40;2.10;;;;;;;18.20;nan;101486.59;6130319;23;20504;-87
2022/06/29 00:23:37;;;;;;;15.20;2.90;;;;;;;18.16;nan;101497.25;6130010;23;20544;-87
2022/06/29 00:26:05;;;;;;;10.53;2.27;;;;;;;18.12;nan;101479.41;6154360;23;20471;-87
2022/06/29 00:28:32;;;;;;;11.17;1.87;;;;;;;18.11;nan;101477.69;6152904;23;20405;-87
2022/06/29 00:31:06;;;;;;;16.03;2.10;;;;;;;18.23;nan;101491.66;6130466;23;20412;-87
2022/06/29 00:33:40;;;;;;;9.43;1.50;;;;;;;18.18;nan;101506.19;6106416;23;20947;-87
2022/06/29 00:36:13;;;;;;;9.13;1.80;;;;;;;18.08;nan;101486.47;6130855;23;20470;-88
2022/06/29 00:42:53;;;;;;;5.70;1.30;;;;;;;18.21;nan;101497.44;6060704;23;20497;-87
2022/06/29 00:45:54;;;;;;;7.33;1.53;;;;;;;18.10;nan;101469.63;6117588;23;20497;-87
2022/06/29 00:48:36;;;;;;;9.77;1.63;;;;;;;18.14;nan;101471.72;5953714;24;20422;-87
2022/06/29 00:51:07;;;;;;;7.57;1.30;;;;;;;18.08;nan;101466.25;5931285;24;20423;-87
2022/06/29 00:53:49;;;;;;;7.23;1.63;;;;;;;18.19;nan;101504.25;5891503;24;20799;-86
2022/06/29 00:56:17;;;;;;;4.87;1.30;;;;;;;18.14;nan;101484.72;5893691;24;20434;-87
2022/06/29 00:58:45;;;;;;;5.37;1.20;;;;;;;18.19;nan;101491.28;5872107;24;20421;-87
2022/06/29 01:01:15;;;;;;;7.10;1.80;;;;;;;18.21;nan;101489.13;5894939;24;20792;-89
2022/06/29 01:04:00;;;;;;;11.40;1.43;;;;;;;18.28;nan;101481.59;5915434;24;20449;-89
2022/06/29 01:06:34;;;;;;;7.93;1.47;;;;;;;18.15;nan;101472.56;5922877;24;20481;-90
2022/06/29 01:09:19;;;;;;;13.23;1.87;;;;;;;18.16;nan;101485.34;5899492;24;20401;-89
2022/06/29 01:12:06;;;;;;;6.10;1.43;;;;;;;18.15;nan;101489.16;5906040;24;20384;-90
2022/06/29 01:14:35;;;;;;;9.13;1.93;;;;;;;18.03;nan;101469.69;6005551;23;20481;-90
2022/06/29 01:17:20;;;;;;;13.33;1.80;;;;;;;18.13;nan;101491.31;5998846;23;20392;-91
2022/06/29 01:19:48;;;;;;;6.70;1.60;;;;;;;18.07;nan;101470.09;5997542;23;20535;-90
2022/06/29 01:22:27;;;;;;;15.40;2.07;;;;;;;18.15;nan;101483.63;6016074;23;20416;-90
2022/06/29 01:25:03;;;;;;;8.50;1.90;;;;;;;18.12;nan;101473.00;6014194;23;20416;-91
2022/06/29 01:27:37;;;;;;;7.43;1.33;;;;;;;18.04;nan;101476.09;6016406;23;20424;-90
2022/06/29 01:30:14;;;;;;;6.73;1.50;;;;;;;18.04;nan;101476.09;6029189;23;20416;-90
2022/06/29 01:32:45;;;;;;;7.37;1.60;;;;;;;18.07;nan;101483.94;6131583;23;20448;-89
2022/06/29 01:35:17;;;;;;;12.40;2.00;;;;;;;17.97;nan;101466.97;6086083;23;20416;-89
2022/06/29 01:37:54;;;;;;;11.33;1.70;;;;;;;17.87;nan;101448.13;6108229;23;20814;-90
2022/06/29 01:40:30;;;;;;;9.27;1.63;;;;;;;17.79;nan;101449.25;6110213;23;20401;-90
2022/06/29 01:42:59;;;;;;;13.23;1.80;;;;;;;17.93;nan;101480.41;6107773;23;20753;-90
2022/06/29 01:45:28;;;;;;;19.83;1.97;;;;;;;17.83;nan;101458.78;6107594;23;20413;-90
2022/06/29 01:48:01;;;;;;;11.30;1.40;;;;;;;17.80;nan;101448.16;6131306;23;20710;-89
2022/06/29 01:50:32;;;;;;;6.10;1.13;;;;;;;17.77;nan;101453.31;6109487;23;20487;-90
2022/06/29 01:53:01;;;;;;;6.80;1.70;;;;;;;17.73;nan;101443.75;6108402;23;20519;-89
2022/06/29 01:55:30;;;;;;;4.23;1.33;;;;;;;17.79;nan;101451.16;6107775;23;20843;-90
2022/06/29 01:58:08;;;;;;;7.77;1.20;;;;;;;17.65;nan;101439.34;6106654;23;20463;-90
2022/06/29 02:00:39;;;;;;;11.93;2.03;;;;;;;17.78;nan;101444.78;6108766;23;20427;-90
2022/06/29 02:03:14;;;;;;;6.07;2.10;;;;;;;17.80;nan;101448.16;6105218;23;20410;-89
2022/06/29 02:05:45;;;;;;;7.43;1.80;;;;;;;17.64;nan;101426.59;6108854;23;20417;-90
2022/06/29 02:08:52;;;;;;;7.50;1.40;;;;;;;17.74;nan;101448.22;6156642;23;20738;-90
2022/06/29 02:11:53;;;;;;;13.20;1.40;;;;;;;17.52;nan;101423.66;6142133;23;20413;-89
2022/06/29 02:14:49;;;;;;;10.70;1.63;;;;;;;17.71;nan;101448.66;6112404;23;20503;-89
2022/06/29 02:17:53;;;;;;;5.80;1.60;;;;;;;17.67;nan;101447.44;6133449;23;20413;-89
2022/06/29 02:21:01;;;;;;;10.10;1.83;;;;;;;17.57;nan;101432.13;6136474;23;20769;-90
2022/06/29 02:23:44;;;;;;;7.47;1.30;;;;;;;17.57;nan;101436.81;6116252;23;20485;-89
2022/06/29 02:26:36;;;;;;;13.50;1.53;;;;;;;17.56;nan;101424.91;6108711;23;20406;-89
2022/06/29 02:29:19;;;;;;;6.83;1.80;;;;;;;17.60;nan;101441.91;6094199;23;20531;-90
2022/06/29 02:34:46;;;;;;;9.60;1.80;;;;;;;17.50;nan;101430.50;6105718;23;20833;-90
2022/06/29 02:37:18;;;;;;;7.30;1.53;;;;;;;17.42;nan;101411.41;6018038;23;20408;-89
2022/06/29 02:39:49;;;;;;;8.47;1.70;;;;;;;17.46;nan;101434.78;6038100;23;20427;-90
2022/06/29 02:42:19;;;;;;;9.70;1.60;;;;;;;17.43;nan;101419.47;6038261;23;20552;-90
2022/06/29 02:44:48;;;;;;;9.63;1.67;;;;;;;17.42;nan;101422.47;5992362;23;20435;-90
2022/06/29 02:47:18;;;;;;;8.60;1.50;;;;;;;17.41;nan;101420.78;6015595;23;20416;-90
2022/06/29 02:49:50;;;;;;;13.93;2.37;;;;;;;17.32;nan;101416.59;6016099;23;20469;-90
2022/06/29 02:52:19;;;;;;;5.07;1.50;;;;;;;17.35;nan;101428.03;6038646;23;20830;-91
2022/06/29 02:54:51;;;;;;;6.27;1.83;;;;;;;17.41;nan;101427.16;6042346;23;20787;-90
2022/06/29 02:57:24;;;;;;;9.90;1.40;;;;;;;17.30;nan;101416.81;6130945;23;20783;-91
2022/06/29 02:59:53;;;;;;;9.03;2.13;;;;;;;17.35;nan;101432.69;6108161;23;20419;-90
2022/06/29 03:02:24;;;;;;;6.07;1.63;;;;;;;17.27;nan;101409.81;6095588;23;20420;-89
2022/06/29 03:04:52;;;;;;;7.30;1.57;;;;;;;17.27;nan;101414.50;6149800;23;20550;-89
2022/06/29 03:07:20;;;;;;;16.47;2.07;;;;;;;17.37;nan;101425.03;6106738;23;20420;-89
2022/06/29 03:09:49;;;;;;;8.73;1.63;;;;;;;17.34;nan;101426.34;6124897;23;20417;-90
2022/06/29 03:12:19;;;;;;;6.50;1.40;;;;;;;17.34;nan;101431.00;6106935;23;20903;-89
2022/06/29 03:14:51;;;;;;;12.57;1.37;;;;;;;17.41;nan;101427.16;6107069;23;20520;-89
2022/06/29 03:17:19;;;;;;;4.37;1.23;;;;;;;17.29;nan;101417.03;6130695;23;20417;-90
2022/06/29 03:19:47;;;;;;;7.03;1.47;;;;;;;17.38;nan;101448.84;6106648;23;20444;-89
2022/06/29 03:22:14;;;;;;;7.90;1.20;;;;;;;17.26;nan;101410.88;6083358;23;20416;-90
2022/06/29 03:24:43;;;;;;;5.47;1.87;;;;;;;17.29;nan;101409.59;6107480;23;20413;-91
2022/06/29 03:27:13;;;;;;;6.80;1.70;;;;;;;17.39;nan;101431.19;6106585;23;20480;-90
2022/06/29 03:29:41;;;;;;;14.13;1.50;;;;;;;17.22;nan;101406.84;5963830;23;21032;-90
2022/06/29 03:32:09;;;;;;;8.30;1.33;;;;;;;17.28;nan;101424.47;5986654;23;20433;-90
2022/06/29 03:34:37;;;;;;;9.23;1.53;;;;;;;17.27;nan;101431.06;5986739;23;20479;-90
2022/06/29 03:37:07;;;;;;;10.87;1.47;;;;;;;17.27;nan;101431.91;5985780;23;20480;-90
2022/06/29 03:39:35;;;;;;;9.93;1.50;;;;;;;17.17;nan;101426.00;6010559;23;20421;-90
2022/06/29 03:42:04;;;;;;;13.70;1.80;;;;;;;17.24;nan;101424.06;5989433;23;20421;-90
2022/06/29 03:44:33;;;;;;;8.07;1.40;;;;;;;17.28;nan;101421.72;6010450;23;20426;-91
2022/06/29 03:47:03;;;;;;;8.30;1.63;;;;;;;17.17;nan;101412.19;6005321;23;20421;-89
2022/06/29 03:49:36;;;;;;;8.63;1.80;;;;;;;17.17;nan;101414.09;6087162;23;20804;-90
2022/06/29 03:52:05;;;;;;;9.30;1.53;;;;;;;17.04;nan;101395.69;6106871;23;20417;-90
2022/06/29 03:54:36;;;;;;;5.60;1.67;;;;;;;17.24;nan;101426.81;6082420;23;20927;-90
2022/06/29 03:57:04;;;;;;;9.63;1.90;;;;;;;17.06;nan;101401.84;6103212;23;20406;-90
2022/06/29 03:59:33;;;;;;;7.43;1.50;;;;;;;17.16;nan;101406.88;6130901;23;20540;-90
2022/06/29 04:02:00;;;;;;;4.53;1.20;;;;;;;17.08;nan;101402.47;6130640;23;20416;-90
2022/06/29 04:04:30;;;;;;;3.50;1.43;;;;;;;17.13;nan;101407.31;6083279;23;20489;-90
2022/06/29 04:06:59;;;;;;;7.27;1.10;;;;;;;17.16;nan;101396.69;6106887;23;20401;-90
2022/06/29 04:09:28;;;;;;;7.00;1.70;;;;;;;17.17;nan;101403.06;6101006;23;20893;-90
2022/06/29 04:12:01;;;;;;;6.07;1.53;;;;;;;17.10;nan;101389.31;6104406;23;20405;-89
2022/06/29 04:14:34;;;;;;;6.00;1.67;;;;;;;17.16;nan;101395.84;6131346;23;20520;-89
2022/06/29 04:17:14;;;;;;;10.37;2.00;;;;;;;17.08;nan;101385.91;6109212;23;20416;-88
2022/06/29 04:19:44;;;;;;;6.30;1.50;;;;;;;17.03;nan;101380.19;6117762;23;20466;-90
2022/06/29 04:22:36;;;;;;;6.60;1.70;;;;;;;17.01;nan;101382.31;6133265;23;20891;-89
2022/06/29 04:25:07;;;;;;;7.50;1.63;;;;;;;17.06;nan;101381.66;6156097;23;20416;-89
2022/06/29 04:27:35;;;;;;;6.73;2.00;;;;;;;17.05;nan;101385.50;6130021;23;20492;-89
2022/06/29 04:30:03;;;;;;;4.87;1.10;;;;;;;17.18;nan;101400.06;6157066;23;20416;-89
2022/06/29 04:32:33;;;;;;;2.57;1.30;;;;;;;17.07;nan;101392.50;6156847;23;20484;-89
2022/06/29 04:35:09;;;;;;;4.40;1.83;;;;;;;17.07;nan;101391.66;6156067;23;20451;-90
2022/06/29 04:37:40;;;;;;;5.63;1.80;;;;;;;17.12;nan;101400.97;6133656;23;20443;-89
2022/06/29 04:40:11;;;;;;;7.63;1.53;;;;;;;17.08;nan;101388.66;6155932;23;20413;-90
2022/06/29 04:42:39;;;;;;;4.87;1.40;;;;;;;17.05;nan;101389.09;6108173;23;20420;-89
2022/06/29 04:46:19;;;;;;;3.63;1.40;;;;;;;17.13;nan;101387.97;6155747;23;20484;-89
2022/06/29 04:48:01;;;;;;;8.70;1.77;;;;;;;17.10;nan;101382.94;6136638;23;20424;-90
2022/06/29 04:50:32;;;;;;;8.07;1.60;;;;;;;17.18;nan;101411.13;6133441;23;20472;-90
2022/06/29 04:53:03;;;;;;;4.03;1.90;;;;;;;17.17;nan;101403.91;6108924;23;20408;-90
2022/06/29 04:55:33;;;;;;;6.60;1.60;;;;;;;17.16;nan;101393.91;6109578;23;20419;-90
2022/06/29 04:58:07;;;;;;;8.07;1.80;;;;;;;17.09;nan;101395.91;6132882;23;20420;-90
2022/06/29 05:00:45;;;;;;;6.33;2.30;;;;;;;17.07;nan;101400.78;6110005;23;20740;-90
2022/06/29 05:03:52;;;;;;;4.93;2.73;;;;;;;17.06;nan;101385.28;6158535;23;20809;-90
2022/06/29 05:06:32;;;;;;;7.43;2.87;;;;;;;17.14;nan;101386.91;6139294;23;20743;-90
2022/06/29 05:09:07;;;;;;;8.50;2.83;;;;;;;17.09;nan;101395.91;6133445;23;20450;-89
2022/06/29 05:11:35;;;;;;;4.70;2.83;;;;;;;17.17;nan;101403.06;6132077;23;20468;-89
2022/06/29 05:14:26;;;;;;;5.97;3.40;;;;;;;17.21;nan;101409.84;6155391;23;20440;-90
2022/06/29 05:20:42;;;;;;;10.50;4.33;;;;;;;17.24;nan;101414.94;6199612;23;20411;-91
2022/06/29 05:26:58;;;;;;;9.10;3.90;;;;;;;17.12;nan;101412.03;6214321;23;20379;-94
2022/06/29 05:29:46;;;;;;;7.13;3.37;;;;;;;17.22;nan;101420.66;6166225;23;20460;-92
2022/06/29 05:32:14;;;;;;;9.87;3.57;;;;;;;17.26;nan;101412.78;6190365;23;20451;-92
2022/06/29 05:34:41;;;;;;;6.70;2.93;;;;;;;17.25;nan;101422.16;6165821;23;20450;-93
2022/06/29 05:37:09;;;;;;;6.57;3.50;;;;;;;17.27;nan;101426.38;6165637;23;20471;-91
2022/06/29 05:39:37;;;;;;;10.37;3.97;;;;;;;17.33;nan;101416.34;6165764;23;20463;-91
2022/06/29 05:42:05;;;;;;;7.80;3.57;;;;;;;17.35;nan;101413.38;6166018;22;20460;-94
2022/06/29 05:44:32;;;;;;;14.60;3.87;;;;;;;17.35;nan;101410.59;6165827;23;20474;-93
2022/06/29 05:47:07;;;;;;;6.30;3.27;;;;;;;17.36;nan;101417.81;6143043;23;20431;-93
2022/06/29 05:49:35;;;;;;;4.77;2.80;;;;;;;17.44;nan;101425.84;6140611;23;20452;-86
2022/06/29 05:52:09;;;;;;;6.60;3.40;;;;;;;17.45;nan;101424.78;6136610;23;20490;-89
2022/06/29 05:54:37;;;;;;;4.80;3.00;;;;;;;17.34;nan;101407.00;6113286;23;20462;-88
2022/06/29 05:57:12;;;;;;;13.00;4.50;;;;;;;17.39;nan;101418.22;6137929;23;20427;-87
2022/06/29 05:59:40;;;;;;;7.10;2.80;;;;;;;17.33;nan;101421.03;6160823;23;20408;-87
2022/06/29 06:02:09;;;;;;;5.47;2.30;;;;;;;17.39;nan;101422.91;6161768;23;20412;-87
2022/06/29 06:04:37;;;;;;;6.97;2.50;;;;;;;17.30;nan;101424.25;6136778;23;20404;-87
2022/06/29 06:07:31;;;;;;;7.13;2.30;;;;;;;17.51;nan;101443.25;6136503;23;20487;-87
2022/06/29 06:10:02;;;;;;;5.10;3.50;;;;;;;17.49;nan;101450.91;6185673;23;20479;-87
2022/06/29 06:12:30;;;;;;;6.97;4.87;;;;;;;17.39;nan;101429.28;6137136;23;20412;-87
2022/06/29 06:15:01;;;;;;;7.70;4.47;;;;;;;17.54;nan;101442.78;6112610;23;20448;-87
2022/06/29 06:17:28;;;;;;;12.10;5.17;;;;;;;17.41;nan;101421.63;6138299;23;20408;-87
2022/06/29 06:20:01;;;;;;;13.23;6.40;;;;;;;17.46;nan;101430.09;6138213;23;20404;-87
2022/06/29 06:22:31;;;;;;;16.80;6.97;;;;;;;17.67;nan;101456.56;6131877;23;20428;-89
2022/06/29 06:25:34;;;;;;;8.23;6.03;;;;;;;17.65;nan;101444.88;6131718;23;20416;-90
2022/06/29 06:28:20;;;;;;;9.53;5.47;;;;;;;17.70;nan;101439.53;6155135;23;20397;-91
2022/06/29 06:30:59;;;;;;;8.83;5.20;;;;;;;17.68;nan;101427.84;6156641;23;20480;-93
2022/06/29 06:33:27;;;;;;;8.40;4.33;;;;;;;17.69;nan;101425.94;6108603;23;20460;-90
2022/06/29 06:36:07;;;;;;;9.67;4.63;;;;;;;17.85;nan;101450.28;6109302;23;20405;-89
2022/06/29 06:39:00;;;;;;;6.03;4.70;;;;;;;17.82;nan;101429.44;6097887;23;20413;-90
2022/06/29 06:41:43;;;;;;;6.63;5.03;;;;;;;17.93;nan;101437.00;6130561;23;20492;-91
2022/06/29 06:44:36;;;;;;;6.40;4.17;;;;;;;18.12;nan;101434.28;6149863;23;20516;-93
2022/06/29 06:47:05;;;;;;;9.13;4.37;;;;;;;18.17;nan;101442.75;6096350;23;20423;-90
2022/06/29 06:49:43;;;;;;;7.03;4.60;;;;;;;18.27;nan;101454.19;6072617;23;20410;-90
2022/06/29 06:52:47;;;;;;;5.77;4.90;;;;;;;18.39;nan;101446.81;6096184;23;20473;-91
2022/06/29 06:55:33;;;;;;;9.20;5.30;;;;;;;18.27;nan;101427.34;6037900;23;20793;-85
2022/06/29 06:58:04;;;;;;;6.53;4.83;;;;;;;18.35;nan;101455.78;6017746;23;20436;-86
2022/06/29 07:00:32;;;;;;;6.27;4.70;;;;;;;18.50;nan;101448.81;6037305;23;20548;-88
2022/06/29 07:03:00;;;;;;;8.13;4.40;;;;;;;18.56;nan;101438.75;6014326;23;20416;-88
2022/06/29 07:05:28;;;;;;;9.13;4.97;;;;;;;18.58;nan;101445.75;5990869;23;20495;-87
2022/06/29 07:07:57;;;;;;;5.90;4.87;;;;;;;18.58;nan;101434.69;6014120;23;20412;-88
2022/06/29 07:10:28;;;;;;;11.40;4.90;;;;;;;18.66;nan;101452.94;6014521;23;20492;-88
2022/06/29 07:13:02;;;;;;;8.13;4.87;;;;;;;18.75;nan;101439.63;6037272;23;20951;-88
2022/06/29 07:43:33;;;;;;;6.97;4.53;;;;;;;19.23;nan;101451.59;6184368;23;20474;-89
2022/06/29 07:46:02;;;;;;;9.80;4.70;;;;;;;19.36;nan;101455.28;6135546;23;20420;-89
2022/06/29 07:48:30;;;;;;;8.10;3.30;;;;;;;19.41;nan;101455.41;6137194;23;20411;-90
2022/06/29 07:50:59;;;;;;;9.07;3.40;;;;;;;19.54;nan;101463.56;6138758;23;20495;-90
2022/06/29 07:53:28;;;;;;;5.20;2.83;;;;;;;19.49;nan;101463.38;6138753;23;20969;-88
2022/06/29 07:55:56;;;;;;;5.80;3.10;;;;;;;19.68;nan;101484.47;6137974;23;20519;-90
2022/06/29 07:58:24;;;;;;;7.30;2.73;;;;;;;19.72;nan;101477.38;6138785;23;20454;-91
2022/06/29 08:00:54;;;;;;;6.13;2.23;;;;;;;19.76;nan;101473.06;6138438;23;20422;-90
2022/06/29 08:03:21;;;;;;;4.00;2.17;;;;;;;19.75;nan;101468.59;6187833;23;20486;-91
2022/06/29 08:13:15;;;;;;;3.57;1.83;;;;;;;19.77;nan;101460.88;6188170;23;20486;-91
2022/06/29 08:15:44;;;;;;;2.30;1.70;;;;;;;19.85;nan;101474.38;6186878;23;21060;-90
2022/06/29 08:18:13;;;;;;;7.07;1.77;;;;;;;19.87;nan;101465.84;6138915;23;20409;-90
2022/06/29 08:20:43;;;;;;;3.20;2.00;;;;;;;19.88;nan;101473.91;6138420;23;20404;-90
2022/06/29 08:23:11;;;;;;;3.20;1.90;;;;;;;19.88;nan;101467.53;6162635;23;20416;-90
2022/06/29 08:25:39;;;;;;;5.63;2.10;;;;;;;19.97;nan;101466.97;6138611;23;20414;-90
2022/06/29 08:28:15;;;;;;;7.00;2.00;;;;;;;20.21;nan;101473.38;6142149;23;20928;-89
2022/06/29 08:30:44;;;;;;;6.63;2.37;;;;;;;20.19;nan;101460.84;6163609;23;20484;-89
2022/06/29 08:33:12;;;;;;;3.97;2.33;;;;;;;20.40;nan;101474.13;6136980;23;20479;-89
2022/06/29 08:35:41;;;;;;;5.40;1.87;;;;;;;20.37;nan;101477.41;6115333;23;20443;-89
2022/06/29 08:38:10;;;;;;;10.73;2.20;;;;;;;20.30;nan;101460.00;6114497;23;20801;-89
2022/06/29 08:40:46;;;;;;;7.93;2.80;;;;;;;20.45;nan;101462.31;6164857;23;20434;-88
2022/06/29 08:43:16;;;;;;;8.93;2.70;;;;;;;20.48;nan;101465.44;6134049;23;21053;-88
2022/06/29 08:45:46;;;;;;;13.10;3.17;;;;;;;20.54;nan;101456.16;6160129;23;20873;-88
2022/06/29 08:48:15;;;;;;;4.70;3.20;;;;;;;20.55;nan;101455.06;6132537;23;20401;-88
2022/06/29 08:50:45;;;;;;;6.93;3.33;;;;;;;20.66;nan;101470.03;6132420;23;20405;-87
2022/06/29 08:53:17;;;;;;;5.57;2.83;;;;;;;20.68;nan;101457.59;6108551;23;20416;-88
2022/06/29 08:55:47;;;;;;;5.60;2.87;;;;;;;20.89;nan;101477.50;6157153;23;20452;-87
2022/06/29 08:58:28;;;;;;;3.87;2.40;;;;;;;20.83;nan;101448.75;6136150;23;20409;-88
2022/06/29 09:20:23;;;;;;;3.33;0.80;;;;;;;21.78;nan;101475.16;6147634;23;20400;-89
2022/06/29 09:23:02;;;;;;;1.57;0.90;;;;;;;21.63;nan;101453.44;6160524;23;20436;-89
2022/06/29 09:29:24;;;;;;;2.40;0.60;;;;;;;21.84;nan;101449.94;6160537;23;21091;-89
2022/06/29 09:35:36;;;;;;;2.60;0.70;;;;;;;22.07;nan;101448.16;6161383;23;20415;-88
2022/06/29 09:45:43;;;;;;;5.23;0.80;;;;;;;22.15;nan;101458.84;6185066;23;20874;-89
2022/06/29 09:48:18;;;;;;;2.60;0.80;;;;;;;22.14;nan;101437.66;6144951;23;20412;-90
2022/06/29 09:59:01;;;;;;;4.87;1.03;;;;;;;22.37;nan;101455.03;6188569;23;20411;-89
2022/06/29 10:04:18;;;;;;;1.83;0.60;;;;;;;22.60;nan;101459.56;6045823;23;20419;-88
2022/06/29 10:49:17;;;;;;;6.80;2.20;;;;;;;23.92;nan;101472.38;6181082;23;20486;-86
2022/06/29 10:52:03;;;;;;;7.93;4.40;;;;;;;23.87;nan;101449.97;6116734;23;20416;-87
2022/06/29 10:54:30;;;;;;;4.80;3.03;;;;;;;23.94;nan;101452.56;6105746;23;20433;-86
2022/06/29 11:16:45;;;;;;;;;;;;;;;;;;;;;
2022/06/29 11:19:30;;;;;;;3.93;0.90;;;;;;;24.69;nan;101432.75;6008935;23;20425;-90
2022/06/29 11:22:54;;;;;;;2.03;1.13;;;;;;;24.93;nan;101433.16;5964714;23;20901;-89
2022/06/29 11:25:23;;;;;;;4.00;0.80;;;;;;;24.92;nan;101431.47;6007785;23;20432;-87
2022/06/29 11:27:51;;;;;;;3.73;1.10;;;;;;;24.85;nan;101424.44;5985659;23;20414;-86
2022/06/29 11:30:21;;;;;;;2.20;1.20;;;;;;;24.82;nan;101430.59;5964472;23;20932;-87
2022/06/29 11:32:49;;;;;;;2.10;0.80;;;;;;;24.87;nan;101451.03;5985870;23;20425;-87
2022/06/29 11:35:22;;;;;;;3.70;1.03;;;;;;;24.87;nan;101427.81;5985547;23;20453;-88
2022/06/29 11:37:56;;;;;;;5.27;0.93;;;;;;;24.86;nan;101426.97;5986020;23;20488;-88
2022/06/29 11:40:33;;;;;;;4.03;1.13;;;;;;;24.79;nan;101438.41;6021300;23;20401;-88
2022/06/29 11:43:09;;;;;;;9.03;1.00;;;;;;;24.79;nan;101455.19;6130345;23;20491;-88
2022/06/29 11:45:51;;;;;;;2.80;0.70;;;;;;;24.79;nan;101432.81;6129262;23;20492;-89
2022/06/29 11:48:21;;;;;;;3.13;0.80;;;;;;;24.97;nan;101427.91;6106494;23;20743;-88
2022/06/29 11:50:53;;;;;;;5.10;0.60;;;;;;;25.05;nan;101407.78;6123028;23;20429;-88
2022/06/29 11:53:44;;;;;;;2.80;0.93;;;;;;;25.24;nan;101428.53;6183443;23;20404;-90
2022/06/29 11:56:21;;;;;;;2.60;1.20;;;;;;;25.18;nan;101429.66;6184153;23;20527;-90
2022/06/29 11:59:05;;;;;;;2.97;1.30;;;;;;;25.07;nan;101428.78;6135587;23;20502;-88
2022/06/29 12:01:36;;;;;;;6.37;1.67;;;;;;;25.11;nan;101426.28;6136068;23;20416;-89
2022/06/29 12:04:06;;;;;;;3.13;1.03;;;;;;;25.00;nan;101432.94;6111238;23;20446;-89
2022/06/29 12:06:39;;;;;;;2.80;0.70;;;;;;;25.19;nan;101448.13;6162437;23;20895;-90
2022/06/29 12:09:08;;;;;;;1.57;0.57;;;;;;;25.14;nan;101434.13;6183654;23;20492;-89
2022/06/29 12:11:40;;;;;;;4.23;0.70;;;;;;;25.25;nan;101452.63;6135613;23;20412;-90
2022/06/29 12:14:08;;;;;;;6.93;0.83;;;;;;;25.16;nan;101433.84;6184621;23;20503;-88
2022/06/29 12:16:40;;;;;;;1.93;0.63;;;;;;;25.07;nan;101453.09;6135963;23;20504;-89
2022/06/29 12:19:08;;;;;;;6.13;1.17;;;;;;;25.18;nan;101438.06;6185521;23;20404;-89
2022/06/29 12:21:36;;;;;;;4.40;0.73;;;;;;;25.22;nan;101436.38;6135558;23;20415;-89
2022/06/29 12:24:04;;;;;;;2.73;1.27;;;;;;;25.27;nan;101433.59;6135823;23;20404;-90
2022/06/29 12:26:34;;;;;;;2.30;0.93;;;;;;;25.19;nan;101434.16;6136152;23;20496;-90
2022/06/29 12:29:02;;;;;;;3.77;1.00;;;;;;;25.26;nan;101443.09;6161605;23;20412;-89
2022/06/29 12:31:30;;;;;;;4.97;1.10;;;;;;;25.25;nan;101409.81;6136022;23;20487;-90
2022/06/29 12:33:58;;;;;;;3.60;1.10;;;;;;;25.13;nan;101410.91;6135117;23;20389;-89
2022/06/29 12:36:55;;;;;;;5.83;1.20;;;;;;;25.15;nan;101407.00;6144937;23;20549;-90
2022/06/29 12:39:23;;;;;;;4.07;1.20;;;;;;;25.40;nan;101416.28;6162112;23;20708;-89
2022/06/29 12:41:53;;;;;;;8.43;1.97;;;;;;;25.43;nan;101409.28;6137780;23;20499;-90
2022/06/29 12:44:21;;;;;;;4.70;1.40;;;;;;;25.54;nan;101410.16;6137475;23;20925;-90
2022/06/29 12:46:56;;;;;;;7.13;1.37;;;;;;;25.75;nan;101417.50;6140973;23;20392;-91
2022/06/29 12:49:24;;;;;;;9.77;1.63;;;;;;;25.61;nan;101396.72;6108589;23;20512;-91
2022/06/29 12:51:55;;;;;;;7.00;1.30;;;;;;;25.54;nan;101401.75;6132486;23;20423;-91
2022/06/29 12:54:24;;;;;;;10.50;1.43;;;;;;;25.73;nan;101420.59;6123868;23;20456;-89
2022/06/29 12:56:56;;;;;;;8.17;1.50;;;;;;;25.65;nan;101412.72;6156992;23;20575;-91
2022/06/29 12:59:27;;;;;;;4.63;1.17;;;;;;;25.53;nan;101409.31;6108853;23;20409;-91
2022/06/29 13:01:58;;;;;;;11.43;1.37;;;;;;;25.60;nan;101397.84;6131846;23;20500;-90
2022/06/29 13:08:15;;;;;;;9.43;1.37;;;;;;;25.63;nan;101381.34;6161746;23;20365;-90
2022/06/29 13:18:15;;;;;;;6.93;0.83;;;;;;;25.73;nan;101386.97;6158715;23;20365;-90
2022/06/29 13:21:00;;;;;;;4.33;0.90;;;;;;;25.67;nan;101388.09;5999920;23;20411;-90
2022/06/29 13:46:12;;;;;;;9.23;2.13;;;;;;;25.63;nan;101377.72;6158293;23;20372;-89
2022/06/29 13:48:41;;;;;;;8.43;1.67;;;;;;;25.66;nan;101388.34;6133090;23;20717;-90
2022/06/29 13:55:09;;;;;;;9.80;2.47;;;;;;;25.92;nan;101372.41;6158977;23;20472;-90
2022/06/29 13:57:39;;;;;;;9.50;1.90;;;;;;;25.67;nan;101365.69;6181142;23;20888;-90
2022/06/29 14:04:28;;;;;;;8.43;1.97;;;;;;;25.62;nan;101362.00;6158398;23;20875;-90
2022/06/29 14:14:24;;;;;;;8.10;2.20;;;;;;;25.68;nan;101341.31;6127451;23;20725;-91
2022/06/29 14:16:51;;;;;;;10.27;2.20;;;;;;;25.78;nan;101335.72;6077451;23;20540;-90
2022/06/29 14:19:25;;;;;;;11.33;2.00;;;;;;;26.09;nan;101328.97;6078307;23;20505;-91
2022/06/29 14:22:29;;;;;;;13.03;2.60;;;;;;;26.25;nan;101348.53;6077867;23;20477;-92
2022/06/29 14:29:01;;;;;;;15.40;2.87;;;;;;;26.19;nan;101322.47;5954689;24;20394;-92
2022/06/29 14:31:51;;;;;;;15.80;2.63;;;;;;;26.24;nan;101318.81;5871973;24;20402;-91
2022/06/29 14:34:40;;;;;;;14.63;2.43;;;;;;;26.20;nan;101320.50;5872074;24;20452;-91
2022/06/29 14:37:29;;;;;;;11.40;2.37;;;;;;;26.15;nan;101327.84;5853584;24;20447;-91
2022/06/29 14:40:17;;;;;;;11.57;2.47;;;;;;;25.92;nan;101311.63;5860969;24;20396;-90
2022/06/29 14:43:02;;;;;;;11.70;2.40;;;;;;;25.83;nan;101316.09;5904078;24;20391;-90
2022/06/29 14:45:48;;;;;;;8.03;2.23;;;;;;;25.95;nan;101313.03;5962248;24;20405;-90
2022/06/29 14:48:35;;;;;;;16.60;2.73;;;;;;;25.88;nan;101327.31;5962697;24;20916;-90
2022/06/29 14:51:02;;;;;;;14.47;2.80;;;;;;;25.86;nan;101337.94;5960370;23;20437;-90
2022/06/29 14:53:31;;;;;;;16.83;2.93;;;;;;;25.82;nan;101311.63;5986445;23;20405;-90
2022/06/29 14:55:59;;;;;;;13.87;2.47;;;;;;;25.85;nan;101304.63;6014109;23;20531;-89
2022/06/29 14:58:29;;;;;;;20.70;2.40;;;;;;;25.88;nan;101324.50;6019589;23;20661;-88
2022/06/29 15:00:57;;;;;;;15.23;2.23;;;;;;;25.89;nan;101314.13;6020464;23;20396;-90
2022/06/29 15:03:28;;;;;;;13.53;2.60;;;;;;;25.65;nan;101333.47;6020646;23;20498;-90
2022/06/29 15:05:56;;;;;;;16.27;3.50;;;;;;;25.59;nan;101324.22;6021394;23;20886;-90
2022/06/29 15:08:25;;;;;;;18.73;2.63;;;;;;;25.59;nan;101317.78;6043897;23;20405;-90
2022/06/29 15:10:53;;;;;;;12.07;2.70;;;;;;;25.47;nan;101306.84;6106826;23;20397;-90
2022/06/29 15:13:42;;;;;;;13.63;2.60;;;;;;;25.33;nan;101323.34;6152857;23;20398;-90
2022/06/29 15:16:18;;;;;;;13.57;2.80;;;;;;;25.27;nan;101293.69;6106974;23;20924;-89
2022/06/29 15:18:49;;;;;;;15.77;2.80;;;;;;;25.42;nan;101302.06;6131633;23;20416;-91
2022/06/29 15:21:23;;;;;;;20.97;3.20;;;;;;;25.57;nan;101300.41;6107537;23;20895;-91
2022/06/29 15:24:04;;;;;;;11.33;2.50;;;;;;;25.50;nan;101285.84;6132780;23;20463;-91
2022/06/29 15:26:36;;;;;;;11.80;1.97;;;;;;;25.54;nan;101293.41;6157050;23;20416;-90
2022/06/29 15:29:06;;;;;;;13.20;3.43;;;;;;;25.38;nan;101312.19;6106846;23;20412;-91
2022/06/29 15:31:37;;;;;;;9.70;2.53;;;;;;;25.33;nan;101284.19;6084901;23;20804;-92
2022/06/29 15:39:47;;;;;;;21.00;3.97;;;;;;;25.60;nan;101274.63;6134874;23;20500;-89
2022/06/29 15:42:17;;;;;;;19.33;3.60;;;;;;;25.52;nan;101250.03;6130362;23;20417;-89
2022/06/29 15:44:47;;;;;;;11.57;2.17;;;;;;;25.32;nan;101274.09;6118172;23;20417;-90
2022/06/29 15:47:19;;;;;;;15.17;2.70;;;;;;;25.37;nan;101262.91;6077333;23;20417;-89
2022/06/29 15:49:47;;;;;;;17.10;2.40;;;;;;;25.31;nan;101266.81;6024238;23;20443;-89
2022/06/29 15:52:16;;;;;;;11.13;2.07;;;;;;;25.21;nan;101278.00;6019785;23;20416;-89